Time;durP1;ratioP1;P1;durP2;ratioP2;P2;SDS_P1;SDS_P2;PMS_P1;PMS_P2;Temp;Humidity;BMP_temperature;BMP_pressure;BME280_temperature;BME280_humidity;BME280_pressure;Samples;Min_cycle;Max_cycle;Signal;HPM_P1;HPM_P2
2021/12/03 00:00:10;;;;;;;2.97;2.73;;;;;;;1.44;83.14;96109.53;5023889;28;20205;-76
2021/12/03 00:02:36;;;;;;;3.30;2.20;;;;;;;1.43;83.60;96115.66;5015381;28;20517;-74
2021/12/03 00:05:04;;;;;;;2.97;2.67;;;;;;;1.54;82.81;96110.59;5027547;28;20634;-75
2021/12/03 00:07:33;;;;;;;3.23;3.03;;;;;;;1.42;83.34;96114.81;5016924;28;20215;-74
2021/12/03 00:09:59;;;;;;;3.07;2.60;;;;;;;1.42;83.54;96103.56;5027609;28;20453;-75
2021/12/03 00:12:26;;;;;;;2.77;2.57;;;;;;;1.38;84.08;96099.53;5016170;28;20260;-75
2021/12/03 00:14:52;;;;;;;4.63;2.50;;;;;;;1.32;86.19;96105.09;5026724;28;20206;-75
2021/12/03 00:17:19;;;;;;;2.57;2.37;;;;;;;1.26;86.25;96108.97;5019700;28;20547;-75
2021/12/03 00:19:45;;;;;;;2.87;2.67;;;;;;;1.34;86.09;96108.47;5026173;28;20208;-74
2021/12/03 00:22:11;;;;;;;3.13;2.57;;;;;;;1.31;85.60;96106.88;5040000;28;20223;-75
2021/12/03 00:24:39;;;;;;;3.37;2.83;;;;;;;1.29;86.73;96113.13;5040144;28;20208;-76
2021/12/03 00:27:07;;;;;;;2.73;2.43;;;;;;;1.36;85.84;96115.25;5039699;28;20212;-74
2021/12/03 00:29:33;;;;;;;2.93;2.63;;;;;;;1.33;86.08;96125.03;5038900;28;20213;-75
2021/12/03 00:32:00;;;;;;;2.73;2.43;;;;;;;1.28;86.27;96121.88;5019941;28;20652;-76
2021/12/03 00:34:27;;;;;;;3.00;2.80;;;;;;;1.23;85.68;96129.16;5023419;28;20215;-77
2021/12/03 00:36:54;;;;;;;2.90;2.60;;;;;;;1.18;86.71;96128.59;5019620;28;20274;-76
2021/12/03 00:39:21;;;;;;;4.03;2.70;;;;;;;1.23;85.90;96134.38;5032471;28;20205;-75
2021/12/03 00:41:55;;;;;;;3.80;2.73;;;;;;;1.20;85.78;96137.19;5042248;28;20249;-75
2021/12/03 00:44:24;;;;;;;3.00;2.73;;;;;;;1.27;85.55;96148.88;5043386;28;20237;-75
2021/12/03 00:46:50;;;;;;;2.50;2.30;;;;;;;1.38;83.74;96155.03;5028504;28;20213;-74
2021/12/03 00:49:17;;;;;;;3.33;2.43;;;;;;;1.34;82.92;96150.97;5046604;28;20208;-75
2021/12/03 00:51:43;;;;;;;2.87;2.50;;;;;;;1.35;84.75;96164.81;5035250;28;20213;-75
2021/12/03 00:54:10;;;;;;;3.20;2.90;;;;;;;1.45;83.28;96174.53;5022377;28;20229;-75
2021/12/03 00:56:37;;;;;;;3.23;2.93;;;;;;;1.47;82.23;96179.66;5030264;28;20228;-76
2021/12/03 00:59:04;;;;;;;3.27;2.87;;;;;;;1.52;82.63;96190.63;5029431;28;20207;-74
2021/12/03 01:01:31;;;;;;;2.73;2.53;;;;;;;1.55;83.60;96200.84;5041875;28;20212;-74
2021/12/03 01:03:57;;;;;;;2.60;2.40;;;;;;;1.64;82.40;96204.63;5034899;28;20214;-73
2021/12/03 01:06:24;;;;;;;3.47;2.50;;;;;;;1.73;81.50;96204.88;5061157;28;20210;-75
2021/12/03 01:08:51;;;;;;;3.13;2.93;;;;;;;1.74;82.07;96203.91;5051179;28;20214;-74
2021/12/03 01:11:18;;;;;;;2.87;2.67;;;;;;;1.76;82.09;96212.50;5048911;28;20200;-76
2021/12/03 01:13:45;;;;;;;3.10;2.80;;;;;;;1.89;81.68;96213.34;5034412;28;20222;-74
2021/12/03 01:16:16;;;;;;;4.67;2.83;;;;;;;1.88;81.53;96226.47;5038911;28;20238;-74
2021/12/03 01:18:44;;;;;;;2.90;2.60;;;;;;;1.90;81.97;96233.28;5035295;28;20217;-74
2021/12/03 01:21:14;;;;;;;7.77;3.13;;;;;;;1.87;81.66;96230.88;5018402;28;20310;-73
2021/12/03 01:23:40;;;;;;;3.53;2.70;;;;;;;1.83;82.42;96245.03;5018251;28;20277;-74
2021/12/03 01:26:07;;;;;;;4.50;2.97;;;;;;;1.82;81.90;96240.75;5018452;28;20214;-77
2021/12/03 01:28:34;;;;;;;3.27;2.70;;;;;;;1.86;81.74;96255.28;5026211;28;20199;-73
2021/12/03 01:31:00;;;;;;;3.90;2.80;;;;;;;1.87;81.10;96259.56;5038086;28;20225;-76
2021/12/03 01:33:28;;;;;;;3.63;2.67;;;;;;;1.78;81.55;96265.34;5024856;28;20650;-77
2021/12/03 01:35:56;;;;;;;3.60;2.70;;;;;;;1.81;80.24;96262.53;5038310;28;20228;-73
2021/12/03 01:38:22;;;;;;;3.50;2.60;;;;;;;1.75;81.64;96267.31;5037944;28;20214;-75
2021/12/03 01:40:49;;;;;;;2.77;2.57;;;;;;;1.79;80.73;96282.66;5037077;28;20668;-74
2021/12/03 01:43:21;;;;;;;3.23;2.90;;;;;;;1.78;80.49;96283.59;5037926;28;20304;-74
2021/12/03 01:45:48;;;;;;;2.60;2.40;;;;;;;1.80;80.73;96291.34;5037831;28;20252;-74
2021/12/03 01:48:14;;;;;;;3.57;2.63;;;;;;;1.74;80.73;96292.53;5037184;28;20610;-74
2021/12/03 01:50:44;;;;;;;2.37;2.27;;;;;;;1.72;81.06;96304.84;5024418;28;20225;-74
2021/12/03 01:53:12;;;;;;;2.93;2.73;;;;;;;1.70;81.16;96301.50;5017656;28;20210;-74
2021/12/03 01:55:40;;;;;;;2.60;2.40;;;;;;;1.66;81.67;96297.44;5018050;28;20677;-74
2021/12/03 01:58:07;;;;;;;4.17;2.70;;;;;;;1.63;83.75;96295.00;5038949;28;20209;-73
2021/12/03 02:00:37;;;;;;;3.17;2.70;;;;;;;1.70;82.44;96290.25;5052788;28;20212;-76
2021/12/03 02:03:05;;;;;;;3.63;2.47;;;;;;;1.70;82.74;96291.06;5042159;28;20200;-75
2021/12/03 02:05:32;;;;;;;3.47;2.30;;;;;;;1.71;83.46;96282.31;5048116;28;20209;-76
2021/12/03 02:08:00;;;;;;;2.83;2.53;;;;;;;1.73;83.06;96290.91;5044168;28;20210;-77
2021/12/03 02:10:27;;;;;;;2.63;2.43;;;;;;;1.75;84.02;96286.41;5049827;28;20222;-74
2021/12/03 02:12:55;;;;;;;3.70;2.30;;;;;;;1.74;81.77;96289.09;5051870;28;20202;-75
2021/12/03 02:15:21;;;;;;;3.80;2.47;;;;;;;1.88;80.78;96295.09;5044886;28;20200;-75
2021/12/03 02:17:48;;;;;;;3.07;2.30;;;;;;;1.73;81.16;96295.25;5041572;28;20225;-75
2021/12/03 02:20:15;;;;;;;3.17;2.77;;;;;;;1.67;81.20;96299.09;5027911;28;20214;-73
2021/12/03 02:22:44;;;;;;;2.60;2.40;;;;;;;1.73;81.35;96297.88;5021215;28;20210;-75
2021/12/03 02:25:13;;;;;;;3.77;2.60;;;;;;;1.63;81.57;96286.38;5017561;28;20214;-73
2021/12/03 02:27:39;;;;;;;4.13;2.30;;;;;;;1.63;82.29;96292.38;5017317;28;20208;-75
2021/12/03 02:30:07;;;;;;;2.67;2.47;;;;;;;1.68;83.64;96292.94;5018080;28;20210;-74
2021/12/03 02:32:34;;;;;;;3.47;3.10;;;;;;;1.64;82.43;96290.63;5016778;28;20214;-74
2021/12/03 02:35:01;;;;;;;4.47;2.53;;;;;;;1.63;81.65;96295.00;5016683;28;20265;-75
2021/12/03 02:37:28;;;;;;;3.30;2.87;;;;;;;1.57;81.68;96287.56;5016766;28;20283;-73
2021/12/03 02:39:56;;;;;;;2.80;2.60;;;;;;;1.63;81.94;96295.00;5030579;28;20205;-75
2021/12/03 02:42:22;;;;;;;2.60;2.40;;;;;;;1.60;81.14;96296.97;5017092;28;20211;-74
2021/12/03 02:44:50;;;;;;;2.70;2.50;;;;;;;1.66;80.53;96293.97;5037496;28;20210;-76
2021/12/03 02:47:17;;;;;;;4.10;2.63;;;;;;;1.79;80.32;96306.13;5028797;28;20540;-73
2021/12/03 02:49:43;;;;;;;3.00;2.80;;;;;;;1.76;79.91;96303.72;5030630;28;20204;-74
2021/12/03 02:52:11;;;;;;;2.60;2.40;;;;;;;1.67;80.31;96301.69;5016329;28;20222;-74
2021/12/03 02:54:37;;;;;;;3.10;2.60;;;;;;;1.68;80.40;96300.75;5016963;28;20209;-76
2021/12/03 02:57:06;;;;;;;3.53;2.60;;;;;;;1.77;79.81;96296.75;5028568;28;20258;-75
2021/12/03 02:59:33;;;;;;;2.70;2.50;;;;;;;1.74;80.81;96297.75;5018785;28;20210;-76
2021/12/03 03:02:00;;;;;;;2.60;2.40;;;;;;;1.73;82.25;96301.31;5026909;28;20271;-74
2021/12/03 03:04:27;;;;;;;3.93;2.97;;;;;;;1.78;80.93;96299.22;5027628;28;20268;-76
2021/12/03 03:06:53;;;;;;;2.73;2.53;;;;;;;1.74;82.15;96305.56;5024095;28;20205;-73
2021/12/03 03:09:20;;;;;;;4.47;2.93;;;;;;;1.75;82.71;96299.44;5022328;28;20208;-74
2021/12/03 03:11:46;;;;;;;2.87;2.57;;;;;;;1.71;82.68;96304.94;5036371;28;20520;-73
2021/12/03 03:14:14;;;;;;;3.70;2.47;;;;;;;1.74;83.96;96297.75;5035640;28;20217;-73
2021/12/03 03:16:41;;;;;;;3.20;2.80;;;;;;;1.81;83.62;96304.25;5035402;28;20234;-73
2021/12/03 03:19:11;;;;;;;3.10;2.70;;;;;;;1.79;83.54;96300.91;5028849;28;20207;-76
2021/12/03 03:21:38;;;;;;;4.63;2.77;;;;;;;1.92;81.26;96306.16;5016769;28;20216;-73
2021/12/03 03:24:07;;;;;;;2.60;2.40;;;;;;;1.87;82.69;96297.81;5022143;28;20220;-72
2021/12/03 03:26:35;;;;;;;3.77;2.47;;;;;;;1.84;82.82;96296.22;5035327;28;20704;-74
2021/12/03 03:29:01;;;;;;;3.73;2.73;;;;;;;1.88;83.05;96300.31;5028045;28;20221;-74
2021/12/03 03:31:29;;;;;;;3.47;2.70;;;;;;;1.91;82.21;96287.06;5015588;28;20534;-76
2021/12/03 03:33:55;;;;;;;3.00;2.80;;;;;;;1.95;82.65;96291.16;5016101;28;20208;-74
2021/12/03 03:36:22;;;;;;;3.53;2.93;;;;;;;2.01;81.65;96287.34;5016029;28;20234;-74
2021/12/03 03:38:49;;;;;;;2.93;2.73;;;;;;;1.94;82.58;96299.94;5028678;28;20254;-74
2021/12/03 03:41:15;;;;;;;3.93;3.03;;;;;;;1.92;82.73;96306.16;5035327;28;20244;-75
2021/12/03 03:43:42;;;;;;;3.30;3.00;;;;;;;1.96;82.53;96294.59;5035264;28;20206;-72
2021/12/03 03:46:09;;;;;;;3.00;2.80;;;;;;;1.98;81.21;96296.16;5032751;28;20220;-73
2021/12/03 03:48:36;;;;;;;2.80;2.50;;;;;;;2.04;81.38;96292.34;5026111;28;20231;-73
2021/12/03 03:51:03;;;;;;;3.97;3.10;;;;;;;2.07;80.62;96297.34;5019084;28;20220;-75
2021/12/03 03:53:29;;;;;;;3.10;2.90;;;;;;;2.06;80.18;96295.69;5015424;28;20689;-73
2021/12/03 03:55:56;;;;;;;3.37;2.57;;;;;;;2.06;80.17;96297.44;5018629;28;20211;-76
2021/12/03 03:58:22;;;;;;;3.13;2.77;;;;;;;2.06;79.91;96302.66;5034982;28;20202;-74
2021/12/03 04:00:49;;;;;;;3.00;2.80;;;;;;;2.06;80.15;96307.88;5018498;28;20223;-76
2021/12/03 04:03:15;;;;;;;3.30;2.70;;;;;;;2.05;81.60;96303.63;5016216;28;20217;-75
2021/12/03 04:05:43;;;;;;;2.70;2.50;;;;;;;2.11;79.93;96300.59;5040417;28;20206;-72
2021/12/03 04:08:10;;;;;;;2.50;2.30;;;;;;;2.06;79.94;96300.06;5034661;28;20198;-76
2021/12/03 04:10:36;;;;;;;2.93;2.60;;;;;;;2.07;80.05;96304.34;5034861;28;20548;-73
2021/12/03 04:13:03;;;;;;;2.97;2.50;;;;;;;2.04;78.64;96305.38;5034995;28;20245;-74
2021/12/03 04:15:29;;;;;;;3.53;2.50;;;;;;;2.06;79.58;96295.69;5035033;28;20210;-74
2021/12/03 04:17:56;;;;;;;3.07;2.50;;;;;;;2.04;80.27;96310.59;5034993;28;20229;-73
2021/12/03 04:20:23;;;;;;;4.80;3.10;;;;;;;2.06;79.80;96313.94;5034356;28;20206;-73
2021/12/03 04:22:52;;;;;;;2.77;2.30;;;;;;;2.04;79.66;96320.19;5035196;28;20237;-72
2021/12/03 04:25:21;;;;;;;2.40;2.30;;;;;;;2.06;79.67;96328.75;5034837;28;20215;-74
2021/12/03 04:27:48;;;;;;;2.90;2.60;;;;;;;1.99;81.02;96331.75;5035300;28;20658;-74
2021/12/03 04:30:17;;;;;;;3.60;2.70;;;;;;;2.00;81.31;96330.81;5029878;28;20219;-73
2021/12/03 04:32:44;;;;;;;3.07;2.83;;;;;;;2.04;80.44;96328.84;5015616;28;20279;-73
2021/12/03 04:35:11;;;;;;;2.97;2.60;;;;;;;2.07;79.49;96327.81;5015485;28;20213;-76
2021/12/03 04:37:37;;;;;;;2.87;2.67;;;;;;;2.03;80.20;96336.75;5015421;28;20230;-75
2021/12/03 04:40:08;;;;;;;2.87;2.73;;;;;;;2.00;79.58;96345.63;5017444;28;20538;-74
2021/12/03 04:42:34;;;;;;;3.70;2.80;;;;;;;1.94;79.31;96349.47;5035825;28;20540;-75
2021/12/03 04:45:01;;;;;;;3.27;2.47;;;;;;;1.96;78.75;96352.81;5035318;28;20219;-75
2021/12/03 04:47:27;;;;;;;2.73;2.50;;;;;;;1.87;79.95;96349.97;5038891;28;20210;-74
2021/12/03 04:49:54;;;;;;;2.97;2.73;;;;;;;1.79;79.92;96347.84;5039097;28;20546;-74
2021/12/03 04:52:20;;;;;;;3.03;2.30;;;;;;;1.81;78.99;96356.38;5022564;28;20211;-76
2021/12/03 04:54:47;;;;;;;3.10;2.80;;;;;;;1.80;78.72;96359.94;5018127;28;20211;-75
2021/12/03 04:57:15;;;;;;;2.60;2.40;;;;;;;1.77;78.00;96360.13;5024994;28;20238;-75
2021/12/03 04:59:41;;;;;;;2.40;2.30;;;;;;;1.75;78.61;96356.78;5038471;28;20217;-75
2021/12/03 05:02:08;;;;;;;2.80;2.60;;;;;;;1.77;78.07;96365.31;5040032;28;20219;-77
2021/12/03 05:04:37;;;;;;;2.70;2.50;;;;;;;1.64;78.46;96364.44;5043260;28;20200;-74
2021/12/03 05:07:16;;;;;;;2.70;2.50;;;;;;;1.54;79.21;96371.16;5051693;28;20222;-75
2021/12/03 05:09:43;;;;;;;2.83;2.57;;;;;;;1.56;77.23;96374.50;5045678;28;20210;-77
2021/12/03 05:12:10;;;;;;;3.83;2.53;;;;;;;1.49;76.94;96389.66;5035039;28;20229;-75
2021/12/03 05:14:38;;;;;;;2.90;2.37;;;;;;;1.61;76.80;96389.84;5041920;28;20675;-76
2021/12/03 05:17:05;;;;;;;3.57;2.50;;;;;;;1.38;79.20;96399.91;5028377;28;20248;-73
2021/12/03 05:19:31;;;;;;;4.17;2.67;;;;;;;1.30;80.74;96399.56;5040139;28;20214;-74
2021/12/03 05:21:58;;;;;;;4.27;2.80;;;;;;;1.24;80.58;96402.50;5038480;28;20218;-73
2021/12/03 05:24:24;;;;;;;2.27;2.17;;;;;;;1.27;80.77;96407.56;5039407;28;20215;-75
2021/12/03 05:26:51;;;;;;;4.77;2.73;;;;;;;1.24;80.94;96402.50;5040842;28;20220;-75
2021/12/03 05:29:18;;;;;;;2.93;2.57;;;;;;;1.27;80.89;96404.13;5035084;28;20202;-74
2021/12/03 05:31:46;;;;;;;2.63;2.30;;;;;;;1.14;81.71;96403.16;5035657;28;20288;-74
2021/12/03 05:34:15;;;;;;;3.53;3.10;;;;;;;1.13;79.95;96401.50;5027111;28;20216;-76
2021/12/03 05:36:42;;;;;;;2.47;2.27;;;;;;;1.11;81.08;96406.78;5018241;28;20268;-76
2021/12/03 05:39:08;;;;;;;3.80;2.57;;;;;;;0.90;81.51;96403.69;5029077;28;20632;-74
2021/12/03 05:41:35;;;;;;;3.27;2.97;;;;;;;0.80;80.90;96407.75;5032759;28;20241;-73
2021/12/03 05:44:02;;;;;;;2.70;2.50;;;;;;;0.76;81.35;96408.88;5025233;28;20212;-74
2021/12/03 05:46:28;;;;;;;2.57;2.37;;;;;;;0.68;81.89;96423.25;5036739;28;20600;-74
2021/12/03 05:48:57;;;;;;;2.97;2.60;;;;;;;0.61;81.79;96424.50;5030740;28;20208;-73
2021/12/03 05:51:25;;;;;;;2.90;2.50;;;;;;;0.55;81.98;96423.13;5018373;28;20277;-75
2021/12/03 05:53:53;;;;;;;3.00;2.80;;;;;;;0.56;81.85;96429.16;5017650;28;20212;-74
2021/12/03 05:56:19;;;;;;;3.77;2.97;;;;;;;0.45;82.74;96443.63;5023647;28;20653;-76
2021/12/03 05:58:48;;;;;;;4.07;3.33;;;;;;;0.59;81.92;96448.03;5024522;28;20548;-74
2021/12/03 06:01:15;;;;;;;3.10;2.90;;;;;;;0.50;82.41;96451.16;5024449;28;20224;-74
2021/12/03 06:03:41;;;;;;;2.87;2.57;;;;;;;0.42;82.44;96453.38;5044904;28;20226;-76
2021/12/03 06:06:09;;;;;;;2.97;2.70;;;;;;;0.35;83.57;96454.63;5044664;28;20203;-75
2021/12/03 06:08:35;;;;;;;2.80;2.50;;;;;;;0.37;83.14;96461.41;5036957;28;20197;-74
2021/12/03 06:11:02;;;;;;;3.73;3.00;;;;;;;0.31;83.50;96458.31;5037678;28;20227;-74
2021/12/03 06:13:28;;;;;;;3.83;2.93;;;;;;;0.31;84.35;96461.75;5036920;28;20551;-74
2021/12/03 06:15:55;;;;;;;4.67;2.60;;;;;;;0.23;84.35;96463.09;5037577;28;20221;-73
2021/12/03 06:18:21;;;;;;;3.20;2.90;;;;;;;0.12;85.52;96455.91;5038967;28;20670;-74
2021/12/03 06:20:48;;;;;;;3.87;3.13;;;;;;;0.11;85.92;96471.59;5020780;28;20208;-73
2021/12/03 06:23:17;;;;;;;3.63;2.93;;;;;;;0.11;86.04;96474.19;5020839;28;20212;-76
2021/12/03 06:25:46;;;;;;;3.47;3.17;;;;;;;0.21;85.63;96480.56;5027087;28;20218;-72
2021/12/03 06:28:12;;;;;;;3.87;3.00;;;;;;;0.18;85.27;96489.34;5028945;28;20220;-74
2021/12/03 06:30:39;;;;;;;3.30;3.00;;;;;;;0.16;85.99;96486.00;5018120;28;20208;-72
2021/12/03 06:33:05;;;;;;;3.00;2.80;;;;;;;0.17;86.01;96500.69;5016890;28;20208;-73
2021/12/03 06:35:32;;;;;;;3.80;3.17;;;;;;;0.14;87.68;96495.66;5017103;28;20211;-74
2021/12/03 06:37:58;;;;;;;4.63;3.40;;;;;;;0.16;88.04;96499.00;5017019;28;20239;-76
2021/12/03 06:40:29;;;;;;;4.27;3.03;;;;;;;0.13;87.85;96495.72;5020413;28;20240;-74
2021/12/03 06:42:56;;;;;;;3.90;3.00;;;;;;;0.24;88.02;96493.38;5036607;28;20209;-75
2021/12/03 06:45:23;;;;;;;3.47;3.07;;;;;;;0.36;88.18;96493.53;5037452;28;20204;-74
2021/12/03 06:47:50;;;;;;;3.73;3.20;;;;;;;0.42;87.90;96494.97;5037080;28;20573;-76
2021/12/03 06:50:18;;;;;;;5.87;4.47;;;;;;;0.52;87.29;96490.94;5037557;28;20205;-77
2021/12/03 06:52:47;;;;;;;8.20;5.90;;;;;;;0.55;86.69;96495.97;5039836;28;20662;-75
2021/12/03 06:55:15;;;;;;;8.97;5.40;;;;;;;0.53;86.93;96500.44;5041850;28;20208;-76
2021/12/03 06:57:44;;;;;;;4.13;3.47;;;;;;;0.52;86.92;96501.34;5038334;28;20260;-76
2021/12/03 07:00:12;;;;;;;5.53;3.20;;;;;;;0.56;86.56;96502.00;5038563;28;20219;-75
2021/12/03 07:02:38;;;;;;;3.50;3.13;;;;;;;0.59;87.74;96502.69;5037435;28;20207;-74
2021/12/03 07:05:06;;;;;;;4.07;3.67;;;;;;;0.61;87.74;96500.81;5046533;28;20210;-74
2021/12/03 07:07:32;;;;;;;5.53;3.53;;;;;;;0.66;87.83;96509.22;5040311;28;20212;-74
2021/12/03 07:10:00;;;;;;;3.93;3.53;;;;;;;0.62;86.56;96502.50;5040751;28;20206;-76
2021/12/03 07:12:27;;;;;;;5.67;3.33;;;;;;;0.64;85.51;96511.03;5028391;28;20242;-75
2021/12/03 07:14:55;;;;;;;3.73;3.30;;;;;;;0.68;84.90;96502.16;5036119;28;20539;-75
2021/12/03 07:17:21;;;;;;;4.70;3.67;;;;;;;0.63;84.34;96513.75;5037027;28;20300;-76
2021/12/03 07:19:48;;;;;;;3.10;2.90;;;;;;;0.63;84.40;96517.19;5037548;28;20211;-76
2021/12/03 07:22:14;;;;;;;3.40;3.10;;;;;;;0.64;83.64;96516.25;5047036;28;20205;-74
2021/12/03 07:24:40;;;;;;;3.13;2.90;;;;;;;0.55;85.09;96515.94;5041203;28;20208;-73
2021/12/03 07:27:07;;;;;;;4.17;3.10;;;;;;;0.58;84.38;96513.16;5037619;28;20221;-75
2021/12/03 07:29:33;;;;;;;4.23;3.47;;;;;;;0.52;84.53;96516.94;5035892;28;20260;-73
2021/12/03 07:32:01;;;;;;;3.83;3.50;;;;;;;0.47;84.84;96522.41;5035892;28;20219;-75
2021/12/03 07:34:27;;;;;;;3.23;3.03;;;;;;;0.45;85.49;96531.22;5035788;28;20215;-73
2021/12/03 07:36:54;;;;;;;3.13;2.93;;;;;;;0.40;84.81;96515.00;5035715;28;20214;-73
2021/12/03 07:39:21;;;;;;;4.13;3.30;;;;;;;0.40;84.79;96528.88;5035621;28;20232;-74
2021/12/03 07:41:47;;;;;;;3.80;3.40;;;;;;;0.33;85.15;96521.47;5035600;28;20228;-75
2021/12/03 07:44:13;;;;;;;4.50;3.57;;;;;;;0.35;84.83;96524.84;5035814;28;20288;-74
2021/12/03 07:46:40;;;;;;;5.17;3.77;;;;;;;0.30;85.19;96522.50;5035030;28;20214;-74
2021/12/03 07:49:08;;;;;;;3.50;3.20;;;;;;;0.30;85.15;96530.28;5035153;28;20209;-77
2021/12/03 07:51:34;;;;;;;3.43;3.23;;;;;;;0.21;85.86;96527.38;5035697;28;20309;-75
2021/12/03 07:54:01;;;;;;;5.73;3.53;;;;;;;0.31;88.08;96523.34;5038738;28;20207;-75
2021/12/03 07:56:27;;;;;;;3.80;3.60;;;;;;;0.40;87.33;96530.63;5028261;28;20224;-76
2021/12/03 07:58:54;;;;;;;3.97;3.57;;;;;;;0.57;86.59;96530.53;5040101;28;20319;-73
2021/12/03 08:01:20;;;;;;;3.80;3.40;;;;;;;0.68;86.10;96537.72;5055656;28;20219;-73
2021/12/03 08:03:46;;;;;;;3.83;3.43;;;;;;;0.76;85.48;96539.00;5045102;28;20215;-74
2021/12/03 08:06:14;;;;;;;5.17;3.80;;;;;;;0.87;85.85;96541.84;5047932;28;20208;-74
2021/12/03 08:08:41;;;;;;;3.80;3.50;;;;;;;0.92;84.95;96539.78;5055079;28;20202;-76
2021/12/03 08:11:08;;;;;;;4.90;4.03;;;;;;;1.02;84.13;96539.28;5044544;28;20543;-73
2021/12/03 08:13:35;;;;;;;3.97;3.67;;;;;;;1.08;83.46;96546.75;5036152;28;20216;-77
2021/12/03 08:16:03;;;;;;;5.70;4.10;;;;;;;1.09;84.41;96553.63;5022108;28;20751;-76
2021/12/03 08:18:30;;;;;;;3.77;3.43;;;;;;;1.15;84.83;96548.06;5035028;28;20655;-77
2021/12/03 08:20:56;;;;;;;4.17;3.77;;;;;;;1.21;84.15;96555.50;5035916;28;20219;-76
2021/12/03 08:23:24;;;;;;;3.73;3.40;;;;;;;1.25;83.62;96557.03;5035662;28;20223;-76
2021/12/03 08:25:51;;;;;;;3.43;3.20;;;;;;;1.36;82.83;96562.44;5035973;28;20203;-74
2021/12/03 08:28:17;;;;;;;3.43;3.20;;;;;;;1.43;82.62;96568.97;5036206;28;20231;-73
2021/12/03 08:30:44;;;;;;;4.83;3.63;;;;;;;1.49;81.74;96566.84;5028583;28;20214;-74
2021/12/03 08:33:10;;;;;;;4.87;3.80;;;;;;;1.58;81.65;96573.31;5030958;28;20202;-73
2021/12/03 08:35:37;;;;;;;5.90;3.40;;;;;;;1.63;82.68;96571.25;5039135;28;20500;-77
2021/12/03 08:38:04;;;;;;;3.70;3.40;;;;;;;1.76;81.25;96580.03;5038562;28;20237;-74
2021/12/03 08:40:31;;;;;;;3.80;3.07;;;;;;;1.62;81.60;96579.16;5039229;28;20243;-73
2021/12/03 08:42:58;;;;;;;3.73;3.33;;;;;;;1.71;80.69;96581.22;5038706;28;20210;-76
2021/12/03 08:45:25;;;;;;;4.80;3.60;;;;;;;1.89;81.44;96585.34;5039582;28;20214;-77
2021/12/03 08:47:55;;;;;;;4.77;3.53;;;;;;;2.03;81.18;96587.97;5038873;28;20231;-76
2021/12/03 08:50:28;;;;;;;3.90;3.50;;;;;;;2.50;80.37;96590.28;5040294;28;20218;-74
2021/12/03 08:55:46;;;;;;;3.47;3.17;;;;;;;4.22;71.68;96592.84;5020154;28;20611;-75
2021/12/03 08:58:15;;;;;;;3.37;3.07;;;;;;;5.13;69.93;96581.09;5035531;28;20234;-73
2021/12/03 09:00:43;;;;;;;2.97;2.70;;;;;;;5.64;65.42;96594.78;5043612;28;20242;-76
2021/12/03 09:03:09;;;;;;;3.10;2.80;;;;;;;5.08;66.12;96593.69;5038621;28;20212;-74
2021/12/03 09:05:37;;;;;;;3.07;2.40;;;;;;;5.10;66.23;96587.38;5048654;28;20195;-76
2021/12/03 09:08:04;;;;;;;2.20;2.07;;;;;;;5.89;64.61;96587.63;5038692;28;20219;-76
2021/12/03 09:10:30;;;;;;;4.37;2.53;;;;;;;6.96;59.25;96591.50;5038851;28;20207;-74
2021/12/03 09:12:58;;;;;;;2.70;2.50;;;;;;;7.67;55.19;96587.44;5038602;28;20219;-76
2021/12/03 09:15:30;;;;;;;3.37;2.50;;;;;;;8.00;53.97;96597.81;5038645;28;20226;-75
2021/12/03 09:18:09;;;;;;;2.20;2.00;;;;;;;8.25;51.41;96596.59;5038775;28;20547;-76
2021/12/03 09:20:45;;;;;;;3.37;3.07;;;;;;;7.44;53.57;96591.94;5038296;28;20258;-74
2021/12/03 09:23:13;;;;;;;4.03;3.60;;;;;;;8.09;53.20;96592.72;5038996;28;20308;-76
2021/12/03 09:25:46;;;;;;;4.00;3.60;;;;;;;7.71;52.99;96594.13;5038169;28;20214;-75
2021/12/03 09:28:14;;;;;;;3.93;3.57;;;;;;;6.98;55.45;96586.94;5038323;28;20266;-76
2021/12/03 09:30:43;;;;;;;10.50;4.37;;;;;;;6.80;57.33;96596.28;5038106;28;20204;-74
2021/12/03 09:33:13;;;;;;;8.93;5.40;;;;;;;6.56;57.19;96592.94;5037958;28;20208;-74
2021/12/03 09:35:43;;;;;;;23.57;6.57;;;;;;;6.22;59.50;96593.88;5028507;28;20298;-74
2021/12/03 09:38:10;;;;;;;13.33;5.60;;;;;;;6.25;59.51;96593.66;5035016;28;20615;-77
2021/12/03 09:40:36;;;;;;;9.10;5.77;;;;;;;5.68;60.55;96594.44;5038086;28;20235;-74
2021/12/03 09:43:03;;;;;;;11.37;6.10;;;;;;;4.93;63.45;96593.84;5038666;28;20608;-74
2021/12/03 09:45:31;;;;;;;5.00;4.50;;;;;;;4.63;64.63;96588.19;5037657;28;20273;-76
2021/12/03 09:47:58;;;;;;;5.50;5.00;;;;;;;4.34;66.79;96584.16;5037917;28;20271;-74
2021/12/03 09:50:24;;;;;;;5.17;4.77;;;;;;;4.25;68.35;96592.66;5038016;28;20219;-76
2021/12/03 09:53:06;;;;;;;5.10;4.70;;;;;;;4.22;67.03;96583.19;5037927;28;20219;-77
2021/12/03 09:55:33;;;;;;;4.73;4.43;;;;;;;4.49;65.79;96594.41;5031004;28;20379;-76
2021/12/03 09:58:11;;;;;;;5.30;4.27;;;;;;;4.18;68.66;96588.78;5037855;28;20208;-75
2021/12/03 10:00:43;;;;;;;5.37;4.67;;;;;;;4.33;68.69;96580.69;5037614;28;20278;-75
2021/12/03 10:03:17;;;;;;;4.37;3.97;;;;;;;4.77;67.39;96579.34;5038556;28;20215;-76
2021/12/03 10:11:45;;;;;;;4.50;3.70;;;;;;;6.83;60.06;96577.66;5037047;28;20289;-76
2021/12/03 10:14:29;;;;;;;3.97;3.40;;;;;;;7.58;56.84;96572.38;5037811;28;20203;-75
2021/12/03 10:20:16;;;;;;;5.30;3.63;;;;;;;8.57;53.13;96570.16;5037117;28;20223;-76
2021/12/03 10:26:12;;;;;;;3.20;2.97;;;;;;;10.00;48.48;96566.00;5011684;28;20206;-75
2021/12/03 10:32:10;;;;;;;3.45;2.78;;;;;;;9.97;48.32;96551.28;5031901;28;20286;-75
2021/12/03 10:37:54;;;;;;;2.25;2.15;;;;;;;10.73;44.75;96549.44;5028084;28;20284;-75
2021/12/03 10:40:31;;;;;;;2.60;2.50;;;;;;;10.20;46.74;96546.53;5036694;28;20556;-75
2021/12/03 10:43:31;;;;;;;2.60;2.40;;;;;;;11.10;44.23;96557.28;5038866;28;20195;-76
2021/12/03 10:46:13;;;;;;;2.75;2.53;;;;;;;9.98;45.08;96555.59;5042003;28;20214;-73
2021/12/03 10:48:48;;;;;;;2.08;1.98;;;;;;;9.82;43.89;96554.50;5027011;28;20204;-77
2021/12/03 10:51:41;;;;;;;2.17;1.98;;;;;;;8.86;46.68;96549.13;5036174;28;20203;-75
2021/12/03 10:54:16;;;;;;;2.33;2.13;;;;;;;7.93;48.11;96557.16;5036669;28;20207;-77
2021/12/03 10:57:02;;;;;;;3.47;2.20;;;;;;;7.38;51.09;96557.41;5029909;28;20201;-76
2021/12/03 10:59:54;;;;;;;2.30;2.20;;;;;;;6.77;52.14;96556.25;5042535;28;20238;-76
2021/12/03 11:02:55;;;;;;;2.63;2.43;;;;;;;6.04;53.90;96554.13;5052803;28;20207;-76
2021/12/03 11:05:58;;;;;;;3.27;2.37;;;;;;;5.51;56.93;96550.28;5036003;28;20204;-74
2021/12/03 11:31:18;;;;;;;3.57;3.27;;;;;;;4.49;59.97;96546.44;5043645;28;20681;-74
2021/12/03 11:39:49;;;;;;;3.60;3.30;;;;;;;4.14;62.98;96541.03;5036545;28;20230;-77
2021/12/03 12:00:37;;;;;;;3.23;3.00;;;;;;;3.77;67.00;96540.09;5036296;28;20235;-75
2021/12/03 12:24:28;;;;;;;3.20;2.90;;;;;;;5.89;56.29;96490.53;5039475;28;20214;-77
2021/12/03 13:12:42;;;;;;;3.37;3.10;;;;;;;4.92;56.77;96445.44;4996661;28;20212;-77
2021/12/03 13:21:22;;;;;;;5.23;3.00;;;;;;;4.62;57.90;96437.22;5036965;28;20539;-76
2021/12/03 13:58:14;;;;;;;3.43;3.10;;;;;;;4.24;62.77;96419.06;5032225;28;20290;-75
2021/12/03 14:00:39;;;;;;;3.43;3.13;;;;;;;4.18;62.64;96423.91;5037026;28;20223;-74
2021/12/03 14:09:09;;;;;;;5.30;3.50;;;;;;;4.11;65.52;96427.91;5037400;28;20673;-74
2021/12/03 14:36:56;;;;;;;4.97;3.77;;;;;;;3.73;63.77;96443.66;5047578;28;20206;-77
2021/12/03 14:39:40;;;;;;;3.10;2.90;;;;;;;3.81;62.82;96450.03;5055786;28;20655;-76
2021/12/03 14:42:33;;;;;;;3.43;3.13;;;;;;;3.75;64.25;96447.00;5047275;28;20242;-74
2021/12/03 14:45:07;;;;;;;4.43;3.60;;;;;;;3.67;65.89;96450.16;5025295;28;20215;-74
2021/12/03 14:53:22;;;;;;;4.13;3.40;;;;;;;3.68;63.81;96445.75;5036582;28;20692;-76
2021/12/03 14:55:51;;;;;;;4.47;3.43;;;;;;;3.65;65.85;96444.19;5031025;28;20260;-74
2021/12/03 14:58:20;;;;;;;4.10;3.70;;;;;;;3.58;63.84;96437.69;5036915;28;20218;-74
2021/12/03 15:00:51;;;;;;;3.57;3.27;;;;;;;3.59;64.98;96428.91;5035678;28;20259;-73
2021/12/03 15:03:35;;;;;;;3.77;3.47;;;;;;;3.50;66.41;96432.19;5036312;28;20285;-74
2021/12/03 15:06:18;;;;;;;3.10;2.90;;;;;;;3.49;62.83;96427.88;5047086;28;20210;-74
2021/12/03 15:08:50;;;;;;;5.00;3.10;;;;;;;3.35;64.33;96415.75;5036177;28;20230;-75
2021/12/03 15:22:43;;;;;;;3.30;3.10;;;;;;;3.32;62.37;96415.13;5036027;28;20380;-73
2021/12/03 15:25:14;;;;;;;3.23;2.93;;;;;;;3.27;61.73;96414.59;5036688;28;20531;-74
2021/12/03 15:28:05;;;;;;;3.83;3.03;;;;;;;3.23;59.97;96418.34;5036545;28;20203;-74
2021/12/03 15:33:20;;;;;;;2.97;2.77;;;;;;;3.10;64.31;96414.91;5025980;28;20216;-73
2021/12/03 15:35:56;;;;;;;3.67;3.37;;;;;;;3.04;63.62;96407.50;5026061;28;20206;-73